Terminal Aerodrome Forecast
Issued by NWS Mt. Holly, NJ

Home | Current Version | Previous Version | Text Only | Print | Product List | Glossary On
Versions: 1 2 3 4 5 6 7 8 9 10 11 12 13 14 15 16
000
FTUS41 KPHI 042321
TAFILG
TAF
KILG 042321Z 0500/0524 20008KT P6SM SCT050
     FM051200 24008KT P6SM SCT050
     FM051900 27006KT P6SM BKN050
      TEMPO 0521/0524 -SHRA OVC035=

USA.gov is the U.S. government's official web portal to all federal, state and local government web resources and services.